createdAt,value
2017-12-19T00:00:34.680Z,1.90
2017-12-19T00:03:02.151Z,1.80
2017-12-19T00:05:29.623Z,1.90
2017-12-19T00:07:57.089Z,1.80
2017-12-19T00:10:29.120Z,1.70
2017-12-19T00:12:56.589Z,1.70
2017-12-19T00:15:24.069Z,1.70
2017-12-19T00:17:51.523Z,1.70
2017-12-19T00:20:18.984Z,1.70
2017-12-19T00:22:46.699Z,1.70
2017-12-19T00:25:14.173Z,1.70
2017-12-19T00:27:41.655Z,1.70
2017-12-19T00:30:09.133Z,1.80
2017-12-19T00:32:37.381Z,1.80
2017-12-19T00:35:04.928Z,1.70
2017-12-19T00:37:32.396Z,1.70
2017-12-19T00:39:59.869Z,1.70
2017-12-19T00:42:28.107Z,1.70
2017-12-19T00:44:55.580Z,1.60
2017-12-19T00:47:23.054Z,1.70
2017-12-19T00:49:51.329Z,1.80
2017-12-19T00:52:19.571Z,1.70
2017-12-19T00:54:47.803Z,1.70
2017-12-19T00:57:15.263Z,1.60
2017-12-19T00:59:42.729Z,1.70
2017-12-19T01:02:10.201Z,1.70
2017-12-19T01:04:37.665Z,1.70
2017-12-19T01:07:05.146Z,1.60
2017-12-19T01:09:33.527Z,1.70
2017-12-19T01:12:01.779Z,1.70
2017-12-19T01:14:29.350Z,1.70
2017-12-19T01:16:56.893Z,1.70
2017-12-19T01:19:24.409Z,1.50
2017-12-19T01:21:51.923Z,1.60
2017-12-19T01:24:20.153Z,1.70
2017-12-19T01:26:47.651Z,1.60
2017-12-19T01:29:15.119Z,1.70
2017-12-19T01:31:43.353Z,1.70
2017-12-19T01:34:10.884Z,1.60
2017-12-19T01:36:38.370Z,1.70
2017-12-19T01:39:05.861Z,1.70
2017-12-19T01:41:34.071Z,1.70
2017-12-19T01:44:01.532Z,1.70
2017-12-19T01:46:29.029Z,1.60
2017-12-19T01:48:56.496Z,1.70
2017-12-19T01:51:24.788Z,1.80
2017-12-19T01:53:52.287Z,1.70
2017-12-19T01:56:19.749Z,1.60
2017-12-19T01:58:47.229Z,1.70
2017-12-19T02:01:14.700Z,1.60
2017-12-19T02:03:42.956Z,1.70
2017-12-19T02:06:10.442Z,1.60
2017-12-19T02:08:37.943Z,1.70
2017-12-19T02:11:05.432Z,1.60
2017-12-19T02:13:33.660Z,1.70
2017-12-19T02:16:01.136Z,1.60
2017-12-19T02:18:28.615Z,1.70
2017-12-19T02:20:56.101Z,1.70
2017-12-19T02:23:23.572Z,1.70
2017-12-19T02:25:51.095Z,1.70
2017-12-19T02:28:20.129Z,1.80
2017-12-19T02:30:47.614Z,1.70
2017-12-19T02:33:15.059Z,1.80
2017-12-19T02:35:42.546Z,1.70
2017-12-19T02:38:10.036Z,1.70
2017-12-19T02:40:37.518Z,1.70
2017-12-19T02:43:16.980Z,1.80
2017-12-19T02:45:44.456Z,1.80
2017-12-19T02:48:12.690Z,1.80
2017-12-19T02:50:40.205Z,1.80
2017-12-19T02:53:07.664Z,1.80
2017-12-19T02:55:35.189Z,1.80
2017-12-19T02:58:02.659Z,1.80
2017-12-19T03:00:30.897Z,1.70
2017-12-19T03:02:58.398Z,1.70
2017-12-19T03:05:25.887Z,1.80
2017-12-19T03:07:53.366Z,1.70
2017-12-19T03:10:20.845Z,1.70
2017-12-19T03:12:49.177Z,1.70
2017-12-19T03:15:16.665Z,1.60
2017-12-19T03:17:44.123Z,1.60
2017-12-19T03:20:11.582Z,1.60
2017-12-19T03:22:39.149Z,1.60
2017-12-19T03:25:07.371Z,1.60
2017-12-19T03:27:34.842Z,1.50
2017-12-19T03:30:02.344Z,1.60
2017-12-19T03:32:30.569Z,1.60
2017-12-19T03:34:58.035Z,1.60
2017-12-19T03:37:25.499Z,1.60
2017-12-19T03:39:52.964Z,1.60
2017-12-19T03:42:20.584Z,1.50
2017-12-19T03:44:48.791Z,1.40
2017-12-19T03:47:16.272Z,1.40
2017-12-19T03:49:44.500Z,1.60
2017-12-19T03:52:12.079Z,1.60
2017-12-19T03:54:39.567Z,1.60
2017-12-19T03:57:07.799Z,1.50
2017-12-19T03:59:35.288Z,1.50
2017-12-19T04:02:03.600Z,1.50
2017-12-19T04:04:31.060Z,1.50
2017-12-19T04:06:58.539Z,1.60
2017-12-19T04:09:25.999Z,1.50
2017-12-19T04:11:53.480Z,1.60
2017-12-19T04:14:20.996Z,1.60
2017-12-19T04:16:48.525Z,1.60
2017-12-19T04:19:15.996Z,1.70
2017-12-19T04:21:43.455Z,1.80
2017-12-19T04:24:11.006Z,1.70
2017-12-19T04:26:38.470Z,1.70
2017-12-19T04:29:05.983Z,1.50
2017-12-19T04:31:34.225Z,1.60
2017-12-19T04:34:01.694Z,1.60
2017-12-19T04:36:29.171Z,1.70
2017-12-19T04:38:57.424Z,1.70
2017-12-19T04:41:24.894Z,1.60
2017-12-19T04:43:52.353Z,1.80
2017-12-19T04:46:20.612Z,1.80
2017-12-19T04:48:48.317Z,1.70
2017-12-19T04:51:15.776Z,1.80
2017-12-19T04:53:43.299Z,1.80
2017-12-19T04:56:11.614Z,1.70
2017-12-19T04:58:39.098Z,1.70
2017-12-19T05:01:06.552Z,1.80
2017-12-19T05:03:34.026Z,1.80
2017-12-19T05:06:01.598Z,1.70
2017-12-19T05:08:29.870Z,1.80
2017-12-19T05:10:57.353Z,1.80
2017-12-19T05:13:24.995Z,1.90
2017-12-19T05:15:53.253Z,1.80
2017-12-19T05:18:20.719Z,1.80
2017-12-19T05:20:48.994Z,1.70
2017-12-19T05:23:17.229Z,1.80
2017-12-19T05:25:44.821Z,1.70
2017-12-19T05:28:12.275Z,1.80
2017-12-19T05:30:39.841Z,1.70
2017-12-19T05:33:08.120Z,1.60
2017-12-19T05:35:36.374Z,1.60
2017-12-19T05:38:03.857Z,1.60
2017-12-19T05:40:32.097Z,1.80
2017-12-19T05:42:59.578Z,1.80
2017-12-19T05:45:27.815Z,1.80
2017-12-19T05:47:55.520Z,1.70
2017-12-19T05:50:23.794Z,1.80
2017-12-19T05:52:52.043Z,1.80
2017-12-19T05:55:19.614Z,1.80
2017-12-19T05:57:47.841Z,1.80
2017-12-19T06:00:15.482Z,1.80
2017-12-19T06:02:42.983Z,1.90
2017-12-19T06:05:11.972Z,1.80
2017-12-19T06:07:39.503Z,1.80
2017-12-19T06:10:06.982Z,1.70
2017-12-19T06:12:34.467Z,1.70
2017-12-19T06:15:02.755Z,1.70
2017-12-19T06:17:31.021Z,1.70
2017-12-19T06:19:59.280Z,1.70
2017-12-19T06:22:26.772Z,1.70
2017-12-19T06:24:54.240Z,1.70
2017-12-19T06:27:21.707Z,1.70
2017-12-19T06:29:49.180Z,1.70
2017-12-19T06:32:16.660Z,1.70
2017-12-19T06:34:44.129Z,1.70
2017-12-19T06:37:12.393Z,1.70
2017-12-19T06:39:39.947Z,1.60
2017-12-19T06:42:07.411Z,1.70
2017-12-19T06:44:35.635Z,1.70
2017-12-19T06:47:03.240Z,1.70
2017-12-19T06:49:31.219Z,1.80
2017-12-19T06:51:59.453Z,2.00
2017-12-19T06:54:26.986Z,1.90
2017-12-19T06:56:54.471Z,1.90
2017-12-19T06:59:21.967Z,1.90
2017-12-19T07:01:50.209Z,2.00
2017-12-19T07:04:17.697Z,2.00
2017-12-19T07:06:45.959Z,1.90
2017-12-19T07:09:13.415Z,1.80
2017-12-19T07:11:41.646Z,1.80
2017-12-19T07:14:09.127Z,1.80
2017-12-19T07:16:36.651Z,1.70
2017-12-19T07:19:04.145Z,1.90
2017-12-19T07:21:31.613Z,1.90
2017-12-19T07:23:59.105Z,1.90
2017-12-19T07:26:26.576Z,1.90
2017-12-19T07:28:54.055Z,1.80
2017-12-19T07:31:21.565Z,1.80
2017-12-19T07:33:49.025Z,1.80
2017-12-19T07:36:16.593Z,1.80
2017-12-19T07:38:44.067Z,1.90
2017-12-19T07:41:11.545Z,1.90
2017-12-19T07:43:39.023Z,2.00
2017-12-19T07:46:07.256Z,2.10
2017-12-19T07:48:34.733Z,2.00
2017-12-19T07:51:03.135Z,2.10
2017-12-19T07:53:31.383Z,2.00
2017-12-19T07:55:58.888Z,2.00
2017-12-19T07:58:26.874Z,2.10
2017-12-19T08:00:54.347Z,2.10
2017-12-19T08:03:21.830Z,2.00
2017-12-19T08:05:49.374Z,2.10
2017-12-19T08:08:17.064Z,2.10
2017-12-19T08:10:45.477Z,2.20
2017-12-19T08:13:12.993Z,2.10
2017-12-19T08:15:41.220Z,2.10
2017-12-19T08:18:08.687Z,2.10
2017-12-19T08:20:36.167Z,2.10
2017-12-19T08:23:03.639Z,2.20
2017-12-19T08:25:31.907Z,2.20
2017-12-19T08:28:00.153Z,2.20
2017-12-19T08:30:27.733Z,2.20
2017-12-19T08:32:55.211Z,2.20
2017-12-19T08:35:23.456Z,2.40
2017-12-19T08:37:50.917Z,2.30
2017-12-19T08:40:18.397Z,2.20
2017-12-19T08:42:46.672Z,2.20
2017-12-19T08:45:14.923Z,2.20
2017-12-19T08:47:42.389Z,2.10
2017-12-19T08:50:10.654Z,2.20
2017-12-19T08:52:38.121Z,2.20
2017-12-19T08:55:06.366Z,2.30
2017-12-19T08:57:33.886Z,2.20
2017-12-19T09:00:01.368Z,2.40
2017-12-19T09:02:28.886Z,2.50
2017-12-19T09:04:56.422Z,2.50
2017-12-19T09:07:24.690Z,2.40
2017-12-19T09:09:52.245Z,2.40
2017-12-19T09:12:19.747Z,2.50
2017-12-19T09:14:47.262Z,2.50
2017-12-19T09:17:14.827Z,2.60
2017-12-19T09:19:43.101Z,2.60
2017-12-19T09:22:11.360Z,2.60
2017-12-19T09:24:38.837Z,2.60
2017-12-19T09:27:07.059Z,2.50
2017-12-19T09:29:34.526Z,2.50
2017-12-19T09:32:02.108Z,2.60
2017-12-19T09:34:29.681Z,2.60
2017-12-19T09:36:57.220Z,2.70
2017-12-19T09:39:24.715Z,2.80
2017-12-19T09:41:52.190Z,2.80
2017-12-19T09:44:19.668Z,2.80
2017-12-19T09:46:47.133Z,2.80
2017-12-19T09:49:14.698Z,2.80
2017-12-19T09:51:42.199Z,2.90
2017-12-19T09:54:09.702Z,2.90
2017-12-19T09:56:37.170Z,3.10
2017-12-19T09:59:04.660Z,3.10
2017-12-19T10:01:32.236Z,3.10
2017-12-19T10:03:59.691Z,3.10
2017-12-19T10:06:27.211Z,3.20
2017-12-19T10:08:55.440Z,3.10
2017-12-19T10:11:22.914Z,3.00
2017-12-19T10:13:50.498Z,3.20
2017-12-19T10:16:18.132Z,3.10
2017-12-19T10:18:47.440Z,3.20
2017-12-19T10:21:14.948Z,3.20
2017-12-19T10:23:42.428Z,3.20
2017-12-19T10:26:09.909Z,3.20
2017-12-19T10:28:37.382Z,3.40
2017-12-19T10:31:05.614Z,3.50
2017-12-19T10:33:33.211Z,3.50
2017-12-19T10:36:01.082Z,3.40
2017-12-19T10:38:29.459Z,3.30
2017-12-19T10:40:57.680Z,3.50
2017-12-19T10:43:26.097Z,3.40
2017-12-19T10:45:54.383Z,3.60
2017-12-19T10:48:22.629Z,3.70
2017-12-19T10:50:50.095Z,3.60
2017-12-19T10:53:17.648Z,3.70
2017-12-19T10:55:45.126Z,3.70
2017-12-19T10:58:13.389Z,3.80
2017-12-19T11:00:40.857Z,3.70
2017-12-19T11:03:09.071Z,3.70
2017-12-19T11:05:36.553Z,3.70
2017-12-19T11:08:04.043Z,3.80
2017-12-19T11:10:32.312Z,3.70
2017-12-19T11:12:59.875Z,3.70
2017-12-19T11:15:28.114Z,3.80
2017-12-19T11:17:55.599Z,3.80
2017-12-19T11:20:23.055Z,3.80
2017-12-19T11:22:51.355Z,3.80
2017-12-19T11:25:19.593Z,3.90
2017-12-19T11:27:47.082Z,3.80
2017-12-19T11:30:14.556Z,3.90
2017-12-19T11:32:42.078Z,4.00
2017-12-19T11:35:10.342Z,3.80
2017-12-19T11:37:37.910Z,3.70
2017-12-19T11:40:06.139Z,3.80
2017-12-19T11:42:33.624Z,3.70
2017-12-19T11:45:01.081Z,3.90
2017-12-19T11:47:28.596Z,3.90
2017-12-19T11:49:56.067Z,3.90
2017-12-19T11:52:23.537Z,3.90
2017-12-19T11:54:51.112Z,4.00
2017-12-19T11:57:18.577Z,4.00
2017-12-19T11:59:46.809Z,4.00
2017-12-19T12:02:14.291Z,4.00
2017-12-19T12:04:41.763Z,4.00
2017-12-19T12:07:10.025Z,4.00
2017-12-19T12:09:37.522Z,3.90
2017-12-19T12:12:05.745Z,3.90
2017-12-19T12:14:33.230Z,3.90
2017-12-19T12:17:01.635Z,3.70
2017-12-19T12:19:29.109Z,3.60
2017-12-19T12:21:56.561Z,3.70
2017-12-19T12:24:24.049Z,3.90
2017-12-19T12:26:51.509Z,3.90
2017-12-19T12:29:19.082Z,4.00
2017-12-19T12:31:47.301Z,4.10
2017-12-19T12:34:15.567Z,4.30
2017-12-19T12:36:43.037Z,4.20
2017-12-19T12:39:10.646Z,4.20
2017-12-19T12:41:38.913Z,4.20
2017-12-19T12:44:06.386Z,4.10
2017-12-19T12:46:34.638Z,4.40
2017-12-19T12:49:02.198Z,4.30
2017-12-19T12:51:30.449Z,4.30
2017-12-19T12:53:57.934Z,4.20
2017-12-19T12:56:26.201Z,4.10
2017-12-19T12:58:53.661Z,4.10
2017-12-19T13:01:21.146Z,4.10
2017-12-19T13:03:48.673Z,4.00
2017-12-19T13:06:16.204Z,4.10
2017-12-19T13:08:43.784Z,4.10
2017-12-19T13:11:11.253Z,4.10
2017-12-19T13:13:39.486Z,4.00
2017-12-19T13:16:07.003Z,4.00
2017-12-19T13:18:34.474Z,4.10
2017-12-19T13:21:01.943Z,4.00
2017-12-19T13:23:29.546Z,4.10
2017-12-19T13:25:57.025Z,4.00
2017-12-19T13:28:24.484Z,4.00
2017-12-19T13:30:52.023Z,3.90
2017-12-19T13:33:20.240Z,3.90
2017-12-19T13:35:47.729Z,3.80
2017-12-19T13:38:15.255Z,3.90
2017-12-19T13:40:42.729Z,3.80
2017-12-19T13:43:10.217Z,3.70
2017-12-19T13:45:38.459Z,3.70
2017-12-19T13:48:06.046Z,3.70
2017-12-19T13:50:34.276Z,3.80
2017-12-19T13:53:01.753Z,3.70
2017-12-19T13:55:29.230Z,3.80
2017-12-19T13:57:56.725Z,3.80
2017-12-19T14:00:24.270Z,3.70
2017-12-19T14:02:52.492Z,3.60
2017-12-19T14:05:20.063Z,3.60
2017-12-19T14:07:47.517Z,3.60
2017-12-19T14:10:15.764Z,3.40
2017-12-19T14:12:43.221Z,3.40
2017-12-19T14:15:10.688Z,3.50
2017-12-19T14:17:38.274Z,3.60
2017-12-19T14:20:05.764Z,3.50
2017-12-19T14:22:33.242Z,3.50
2017-12-19T14:25:00.688Z,3.40
2017-12-19T14:27:28.146Z,3.30
2017-12-19T14:29:55.609Z,3.40
2017-12-19T14:32:23.102Z,3.50
2017-12-19T14:34:50.576Z,3.40
2017-12-19T14:37:18.826Z,3.50
2017-12-19T14:39:46.300Z,3.50
2017-12-19T14:42:13.752Z,3.60
2017-12-19T14:44:42.001Z,3.50
2017-12-19T14:47:09.480Z,3.50
2017-12-19T14:49:36.982Z,3.50
2017-12-19T14:52:04.441Z,3.50
2017-12-19T14:54:31.922Z,3.50
2017-12-19T14:56:59.413Z,3.50
2017-12-19T14:59:27.654Z,3.20
2017-12-19T15:01:55.132Z,3.10
2017-12-19T15:04:22.653Z,3.20
2017-12-19T15:06:50.140Z,3.10
2017-12-19T15:09:17.623Z,3.10
2017-12-19T15:11:45.868Z,3.20
2017-12-19T15:14:13.375Z,3.10
2017-12-19T15:16:40.881Z,3.10
2017-12-19T15:19:08.359Z,3.10
2017-12-19T15:21:36.653Z,3.10
2017-12-19T15:24:04.157Z,3.00
2017-12-19T15:26:31.639Z,3.20
2017-12-19T15:28:59.110Z,3.20
2017-12-19T15:31:27.348Z,3.10
2017-12-19T15:33:54.831Z,3.10
2017-12-19T15:36:23.061Z,3.10
2017-12-19T15:38:50.519Z,3.10
2017-12-19T15:41:18.105Z,3.10
2017-12-19T15:43:45.630Z,3.00
2017-12-19T15:46:13.108Z,2.90
2017-12-19T15:48:40.577Z,2.80
2017-12-19T15:51:08.899Z,2.60
2017-12-19T15:53:36.409Z,2.60
2017-12-19T15:56:03.883Z,2.70
2017-12-19T15:58:32.146Z,2.70
2017-12-19T16:01:00.384Z,2.70
2017-12-19T16:03:27.989Z,2.60
2017-12-19T16:05:56.221Z,2.80
2017-12-19T16:08:23.684Z,2.70
2017-12-19T16:10:51.165Z,2.90
2017-12-19T16:13:19.393Z,2.80
2017-12-19T16:15:46.880Z,2.80
2017-12-19T16:18:14.360Z,2.90
2017-12-19T16:20:42.586Z,3.00
2017-12-19T16:23:10.077Z,2.90
2017-12-19T16:25:38.334Z,2.90
2017-12-19T16:28:05.821Z,2.90
2017-12-19T16:30:34.077Z,3.00
2017-12-19T16:33:01.536Z,3.00
2017-12-19T16:35:29.795Z,2.90
2017-12-19T16:37:57.282Z,2.80
2017-12-19T16:40:25.499Z,2.90
2017-12-19T16:42:52.996Z,2.80
2017-12-19T16:45:20.449Z,3.00
2017-12-19T16:47:48.688Z,3.00
2017-12-19T16:50:16.161Z,2.90
2017-12-19T16:52:43.673Z,3.00
2017-12-19T16:55:11.128Z,2.90
2017-12-19T16:57:38.591Z,2.90
2017-12-19T17:00:06.063Z,2.90
2017-12-19T17:02:33.529Z,2.70
2017-12-19T17:05:00.997Z,2.60
2017-12-19T17:07:28.489Z,2.60
2017-12-19T17:09:55.957Z,2.70
2017-12-19T17:12:23.411Z,2.60
2017-12-19T17:14:50.937Z,2.60
2017-12-19T17:17:18.402Z,2.70
2017-12-19T17:19:46.667Z,2.80
2017-12-19T17:22:14.166Z,2.70
2017-12-19T17:24:41.637Z,2.90
2017-12-19T17:27:09.110Z,2.90
2017-12-19T17:29:36.630Z,2.90
2017-12-19T17:32:04.118Z,2.90
2017-12-19T17:34:31.581Z,2.90
2017-12-19T17:36:59.071Z,2.90
2017-12-19T17:39:27.325Z,2.90
2017-12-19T17:41:54.800Z,2.90
2017-12-19T17:44:23.053Z,2.90
2017-12-19T17:46:50.620Z,2.80
2017-12-19T17:49:18.109Z,2.90
2017-12-19T17:51:45.574Z,3.00
2017-12-19T17:54:13.051Z,3.00
2017-12-19T17:56:40.530Z,3.00
2017-12-19T17:59:07.996Z,3.00
2017-12-19T18:01:35.465Z,3.00
2017-12-19T18:04:03.741Z,3.10
2017-12-19T18:06:32.051Z,3.10
2017-12-19T18:08:59.494Z,3.10
2017-12-19T18:11:26.980Z,3.20
2017-12-19T18:13:54.455Z,3.20
2017-12-19T18:16:22.037Z,3.10
2017-12-19T18:18:50.287Z,2.90
2017-12-19T18:21:17.755Z,2.80
2017-12-19T18:23:45.210Z,3.00
2017-12-19T18:26:12.686Z,3.00
2017-12-19T18:28:40.959Z,3.00
2017-12-19T18:31:09.235Z,2.90
2017-12-19T18:33:36.655Z,2.90
2017-12-19T18:36:04.137Z,2.90
2017-12-19T18:38:32.385Z,2.80
2017-12-19T18:40:59.908Z,2.70
2017-12-19T18:43:27.371Z,2.80
2017-12-19T18:45:54.826Z,2.80
2017-12-19T18:48:22.301Z,2.90
2017-12-19T18:50:49.786Z,2.80
2017-12-19T18:53:17.263Z,2.80
2017-12-19T18:55:45.534Z,2.80
2017-12-19T18:58:13.783Z,2.90
2017-12-19T19:00:41.263Z,2.80
2017-12-19T19:03:09.521Z,2.90
2017-12-19T19:05:37.001Z,2.80
2017-12-19T19:08:05.223Z,2.90
2017-12-19T19:10:32.712Z,2.90
2017-12-19T19:13:00.959Z,2.90
2017-12-19T19:15:28.547Z,2.80
2017-12-19T19:17:56.787Z,3.00
2017-12-19T19:20:24.240Z,2.90
2017-12-19T19:22:51.731Z,3.00
2017-12-19T19:25:19.179Z,2.80
2017-12-19T19:27:46.646Z,2.80
2017-12-19T19:30:14.890Z,2.80
2017-12-19T19:32:42.364Z,2.80
2017-12-19T19:35:09.925Z,2.90
2017-12-19T19:37:37.378Z,2.80
2017-12-19T19:40:04.844Z,2.90
2017-12-19T19:42:33.084Z,2.70
2017-12-19T19:45:00.543Z,2.60
2017-12-19T19:47:28.046Z,2.70
2017-12-19T19:49:55.514Z,2.70
2017-12-19T19:52:22.977Z,2.80
2017-12-19T19:54:50.469Z,2.70
2017-12-19T19:57:17.933Z,2.50
2017-12-19T19:59:45.388Z,2.50
2017-12-19T20:02:12.993Z,2.40
2017-12-19T20:04:40.447Z,2.50
2017-12-19T20:07:08.710Z,2.50
2017-12-19T20:09:36.956Z,2.50
2017-12-19T20:12:04.408Z,2.40
2017-12-19T20:14:31.876Z,2.50
2017-12-19T20:17:00.127Z,2.60
2017-12-19T20:19:27.622Z,2.60
2017-12-19T20:21:55.858Z,2.60
2017-12-19T20:24:23.314Z,2.50
2017-12-19T20:26:50.811Z,2.60
2017-12-19T20:29:19.052Z,2.50
2017-12-19T20:31:46.523Z,2.40
2017-12-19T20:34:14.783Z,2.60
2017-12-19T20:36:42.280Z,2.60
2017-12-19T20:39:09.779Z,2.50
2017-12-19T20:41:37.251Z,2.40
2017-12-19T20:44:04.733Z,2.40
2017-12-19T20:46:32.969Z,2.40
2017-12-19T20:49:00.449Z,2.30
2017-12-19T20:51:28.701Z,2.20
2017-12-19T20:53:56.177Z,2.20
2017-12-19T20:56:23.660Z,2.30
2017-12-19T20:58:51.154Z,2.30
2017-12-19T21:01:18.632Z,2.40
2017-12-19T21:03:46.147Z,2.40
2017-12-19T21:06:13.771Z,2.30
2017-12-19T21:08:42.030Z,2.30
2017-12-19T21:11:09.586Z,2.30
2017-12-19T21:13:37.149Z,2.20
2017-12-19T21:16:04.612Z,2.20
2017-12-19T21:18:32.884Z,2.10
2017-12-19T21:21:01.163Z,2.10
2017-12-19T21:23:29.425Z,2.10
2017-12-19T21:25:56.932Z,2.10
2017-12-19T21:28:24.399Z,2.00
2017-12-19T21:30:51.883Z,2.00
2017-12-19T21:33:19.489Z,2.00
2017-12-19T21:35:46.971Z,2.20
2017-12-19T21:38:14.481Z,2.10
2017-12-19T21:40:42.774Z,2.10
2017-12-19T21:43:10.359Z,2.00
2017-12-19T21:45:37.816Z,2.00
2017-12-19T21:48:05.285Z,2.10
2017-12-19T21:50:32.768Z,2.00
2017-12-19T21:53:00.274Z,2.00
2017-12-19T21:55:27.761Z,2.00
2017-12-19T21:57:55.215Z,2.00
2017-12-19T22:00:22.699Z,2.00
2017-12-19T22:02:50.179Z,2.00
2017-12-19T22:05:17.645Z,2.00
2017-12-19T22:07:45.130Z,1.90
2017-12-19T22:10:12.622Z,1.90
2017-12-19T22:12:40.177Z,2.00
2017-12-19T22:15:07.682Z,2.00
2017-12-19T22:17:35.169Z,1.90
2017-12-19T22:20:02.615Z,2.00
2017-12-19T22:22:30.100Z,2.00
2017-12-19T22:24:57.589Z,1.90
2017-12-19T22:27:25.068Z,1.80
2017-12-19T22:29:52.549Z,1.90
2017-12-19T22:32:20.072Z,2.00
2017-12-19T22:34:47.540Z,2.00
2017-12-19T22:37:15.037Z,2.00
2017-12-19T22:39:42.597Z,2.00
2017-12-19T22:42:10.858Z,1.90
2017-12-19T22:44:38.403Z,1.80
2017-12-19T22:47:05.903Z,2.10
2017-12-19T22:49:34.137Z,2.00
2017-12-19T22:52:01.647Z,1.90
2017-12-19T22:54:29.131Z,2.00
2017-12-19T22:56:56.604Z,2.00
2017-12-19T22:59:24.101Z,1.90
2017-12-19T23:01:52.319Z,1.90
2017-12-19T23:04:19.789Z,1.90
2017-12-19T23:06:47.279Z,2.00
2017-12-19T23:09:15.508Z,2.00
2017-12-19T23:11:42.998Z,2.00
2017-12-19T23:14:10.553Z,2.00
2017-12-19T23:16:38.094Z,2.00
2017-12-19T23:19:05.570Z,2.10
2017-12-19T23:21:33.037Z,2.10
2017-12-19T23:24:01.515Z,2.00
2017-12-19T23:26:29.730Z,1.90
2017-12-19T23:28:57.271Z,1.90
2017-12-19T23:31:24.792Z,2.00
2017-12-19T23:33:52.400Z,2.00
2017-12-19T23:36:19.880Z,1.90
2017-12-19T23:38:47.364Z,1.80
2017-12-19T23:41:14.845Z,1.80
2017-12-19T23:43:42.299Z,1.90
2017-12-19T23:46:10.534Z,1.80
2017-12-19T23:48:38.002Z,1.80
2017-12-19T23:51:05.464Z,1.80
2017-12-19T23:53:33.694Z,2.00
2017-12-19T23:56:01.171Z,1.90
2017-12-19T23:58:28.643Z,2.00
